sensor_id;sensor_type;location;lat;lon;timestamp;temperature;humidity
68217;DHT22;55037;52.354;4.992;2022-08-19T00:01:55;20.00;89.80
68217;DHT22;55037;52.354;4.992;2022-08-19T00:04:29;20.00;90.10
68217;DHT22;55037;52.354;4.992;2022-08-19T00:06:58;19.90;90.00
68217;DHT22;55037;52.354;4.992;2022-08-19T00:09:26;20.00;89.40
68217;DHT22;55037;52.354;4.992;2022-08-19T00:11:54;19.90;90.10
68217;DHT22;55037;52.354;4.992;2022-08-19T00:14:23;19.90;90.10
68217;DHT22;55037;52.354;4.992;2022-08-19T00:16:51;19.90;90.10
68217;DHT22;55037;52.354;4.992;2022-08-19T00:19:22;19.90;89.80
68217;DHT22;55037;52.354;4.992;2022-08-19T00:21:50;19.90;90.20
68217;DHT22;55037;52.354;4.992;2022-08-19T00:24:18;19.90;90.20
68217;DHT22;55037;52.354;4.992;2022-08-19T00:26:45;19.90;90.10
68217;DHT22;55037;52.354;4.992;2022-08-19T00:29:15;19.90;90.20
68217;DHT22;55037;52.354;4.992;2022-08-19T00:31:43;19.80;90.30
68217;DHT22;55037;52.354;4.992;2022-08-19T00:34:12;19.80;90.50
68217;DHT22;55037;52.354;4.992;2022-08-19T00:36:41;19.80;90.50
68217;DHT22;55037;52.354;4.992;2022-08-19T00:39:08;19.70;90.20
68217;DHT22;55037;52.354;4.992;2022-08-19T00:41:36;19.80;90.50
68217;DHT22;55037;52.354;4.992;2022-08-19T00:46:39;19.70;90.80
68217;DHT22;55037;52.354;4.992;2022-08-19T00:49:12;19.70;90.80
68217;DHT22;55037;52.354;4.992;2022-08-19T00:51:43;19.70;90.60
68217;DHT22;55037;52.354;4.992;2022-08-19T00:54:12;19.70;90.80
68217;DHT22;55037;52.354;4.992;2022-08-19T00:56:39;19.70;90.90
68217;DHT22;55037;52.354;4.992;2022-08-19T00:59:09;19.70;90.80
68217;DHT22;55037;52.354;4.992;2022-08-19T01:01:37;19.60;90.70
68217;DHT22;55037;52.354;4.992;2022-08-19T01:04:05;19.50;90.80
68217;DHT22;55037;52.354;4.992;2022-08-19T01:06:33;19.50;90.90
68217;DHT22;55037;52.354;4.992;2022-08-19T01:09:02;19.40;91.00
68217;DHT22;55037;52.354;4.992;2022-08-19T01:11:31;19.40;91.00
68217;DHT22;55037;52.354;4.992;2022-08-19T01:14:00;19.30;91.10
68217;DHT22;55037;52.354;4.992;2022-08-19T01:16:28;19.30;91.20
68217;DHT22;55037;52.354;4.992;2022-08-19T01:18:56;19.30;91.30
68217;DHT22;55037;52.354;4.992;2022-08-19T01:21:48;19.30;91.40
68217;DHT22;55037;52.354;4.992;2022-08-19T01:24:20;19.30;91.40
68217;DHT22;55037;52.354;4.992;2022-08-19T01:26:49;19.30;91.60
68217;DHT22;55037;52.354;4.992;2022-08-19T01:29:16;19.30;91.20
68217;DHT22;55037;52.354;4.992;2022-08-19T01:31:44;19.30;91.60
68217;DHT22;55037;52.354;4.992;2022-08-19T01:34:11;19.40;91.60
68217;DHT22;55037;52.354;4.992;2022-08-19T01:36:42;19.30;91.60
68217;DHT22;55037;52.354;4.992;2022-08-19T01:39:15;19.30;91.70
68217;DHT22;55037;52.354;4.992;2022-08-19T01:41:43;19.30;91.70
68217;DHT22;55037;52.354;4.992;2022-08-19T01:44:10;19.20;91.80
68217;DHT22;55037;52.354;4.992;2022-08-19T01:46:47;19.20;91.80
68217;DHT22;55037;52.354;4.992;2022-08-19T01:49:17;19.20;91.60
68217;DHT22;55037;52.354;4.992;2022-08-19T01:51:44;19.20;92.00
68217;DHT22;55037;52.354;4.992;2022-08-19T01:54:14;19.10;92.00
68217;DHT22;55037;52.354;4.992;2022-08-19T01:57:06;19.10;92.10
68217;DHT22;55037;52.354;4.992;2022-08-19T01:59:34;19.20;92.10
68217;DHT22;55037;52.354;4.992;2022-08-19T02:02:05;19.10;92.30
68217;DHT22;55037;52.354;4.992;2022-08-19T02:04:35;19.10;92.30
68217;DHT22;55037;52.354;4.992;2022-08-19T02:07:06;19.10;92.30
68217;DHT22;55037;52.354;4.992;2022-08-19T02:09:35;19.10;92.30
68217;DHT22;55037;52.354;4.992;2022-08-19T02:12:04;19.10;92.30
68217;DHT22;55037;52.354;4.992;2022-08-19T02:14:31;19.10;92.30
68217;DHT22;55037;52.354;4.992;2022-08-19T02:17:00;19.20;92.40
68217;DHT22;55037;52.354;4.992;2022-08-19T02:19:28;19.10;92.40
68217;DHT22;55037;52.354;4.992;2022-08-19T02:21:58;19.10;92.20
68217;DHT22;55037;52.354;4.992;2022-08-19T02:24:26;19.20;92.00
68217;DHT22;55037;52.354;4.992;2022-08-19T02:26:54;19.20;92.10
68217;DHT22;55037;52.354;4.992;2022-08-19T02:29:21;19.20;92.10
68217;DHT22;55037;52.354;4.992;2022-08-19T02:31:48;19.20;92.20
68217;DHT22;55037;52.354;4.992;2022-08-19T02:34:16;19.20;92.00
68217;DHT22;55037;52.354;4.992;2022-08-19T02:36:44;19.20;91.90
68217;DHT22;55037;52.354;4.992;2022-08-19T02:39:18;19.20;91.90
68217;DHT22;55037;52.354;4.992;2022-08-19T02:41:45;19.10;92.00
68217;DHT22;55037;52.354;4.992;2022-08-19T02:44:12;19.20;92.00
68217;DHT22;55037;52.354;4.992;2022-08-19T02:46:57;19.20;91.90
68217;DHT22;55037;52.354;4.992;2022-08-19T02:49:25;19.20;91.80
68217;DHT22;55037;52.354;4.992;2022-08-19T02:51:52;19.20;91.80
68217;DHT22;55037;52.354;4.992;2022-08-19T02:54:19;19.20;91.70
68217;DHT22;55037;52.354;4.992;2022-08-19T02:56:46;19.10;91.60
68217;DHT22;55037;52.354;4.992;2022-08-19T02:59:13;19.10;91.60
68217;DHT22;55037;52.354;4.992;2022-08-19T03:01:41;19.10;91.90
68217;DHT22;55037;52.354;4.992;2022-08-19T03:04:11;19.10;91.70
68217;DHT22;55037;52.354;4.992;2022-08-19T03:06:43;19.00;91.70
68217;DHT22;55037;52.354;4.992;2022-08-19T03:09:11;19.00;91.70
68217;DHT22;55037;52.354;4.992;2022-08-19T03:11:39;19.10;91.60
68217;DHT22;55037;52.354;4.992;2022-08-19T03:14:07;19.10;91.60
68217;DHT22;55037;52.354;4.992;2022-08-19T03:16:44;19.10;91.60
68217;DHT22;55037;52.354;4.992;2022-08-19T03:19:13;19.10;91.70
68217;DHT22;55037;52.354;4.992;2022-08-19T03:21:42;19.10;91.60
68217;DHT22;55037;52.354;4.992;2022-08-19T03:24:12;19.10;91.60
68217;DHT22;55037;52.354;4.992;2022-08-19T03:26:45;19.10;91.60
68217;DHT22;55037;52.354;4.992;2022-08-19T03:29:13;19.10;91.60
68217;DHT22;55037;52.354;4.992;2022-08-19T03:31:52;19.00;91.50
68217;DHT22;55037;52.354;4.992;2022-08-19T03:34:26;19.00;91.90
68217;DHT22;55037;52.354;4.992;2022-08-19T03:36:55;19.00;91.50
68217;DHT22;55037;52.354;4.992;2022-08-19T03:39:24;19.00;91.40
68217;DHT22;55037;52.354;4.992;2022-08-19T03:41:53;18.90;91.30
68217;DHT22;55037;52.354;4.992;2022-08-19T03:44:44;18.90;91.30
68217;DHT22;55037;52.354;4.992;2022-08-19T03:47:12;18.80;91.30
68217;DHT22;55037;52.354;4.992;2022-08-19T03:49:43;18.80;91.40
68217;DHT22;55037;52.354;4.992;2022-08-19T03:52:11;18.80;91.40
68217;DHT22;55037;52.354;4.992;2022-08-19T03:54:38;18.80;91.50
68217;DHT22;55037;52.354;4.992;2022-08-19T03:57:06;18.80;91.50
68217;DHT22;55037;52.354;4.992;2022-08-19T03:59:36;18.80;91.50
68217;DHT22;55037;52.354;4.992;2022-08-19T04:02:09;18.90;91.60
68217;DHT22;55037;52.354;4.992;2022-08-19T04:04:42;18.90;91.70
68217;DHT22;55037;52.354;4.992;2022-08-19T04:07:12;18.90;91.80
68217;DHT22;55037;52.354;4.992;2022-08-19T04:09:42;18.90;91.40
68217;DHT22;55037;52.354;4.992;2022-08-19T04:12:10;18.90;91.70
68217;DHT22;55037;52.354;4.992;2022-08-19T04:14:37;18.90;91.70
68217;DHT22;55037;52.354;4.992;2022-08-19T04:17:04;19.40;91.90
68217;DHT22;55037;52.354;4.992;2022-08-19T04:19:33;18.90;91.80
68217;DHT22;55037;52.354;4.992;2022-08-19T04:22:02;18.90;91.80
68217;DHT22;55037;52.354;4.992;2022-08-19T04:24:29;18.90;91.80
68217;DHT22;55037;52.354;4.992;2022-08-19T04:27:00;18.90;91.80
68217;DHT22;55037;52.354;4.992;2022-08-19T04:29:28;18.80;91.80
68217;DHT22;55037;52.354;4.992;2022-08-19T04:31:56;18.80;91.80
68217;DHT22;55037;52.354;4.992;2022-08-19T04:34:25;18.80;91.90
68217;DHT22;55037;52.354;4.992;2022-08-19T04:36:55;18.90;92.00
68217;DHT22;55037;52.354;4.992;2022-08-19T04:39:29;18.90;92.00
68217;DHT22;55037;52.354;4.992;2022-08-19T04:42:17;18.90;92.00
68217;DHT22;55037;52.354;4.992;2022-08-19T04:45:08;18.80;92.00
68217;DHT22;55037;52.354;4.992;2022-08-19T04:47:40;18.80;91.90
68217;DHT22;55037;52.354;4.992;2022-08-19T04:50:25;18.80;91.90
68217;DHT22;55037;52.354;4.992;2022-08-19T04:52:53;18.80;92.00
68217;DHT22;55037;52.354;4.992;2022-08-19T04:55:22;18.80;92.00
68217;DHT22;55037;52.354;4.992;2022-08-19T04:57:53;18.80;92.10
68217;DHT22;55037;52.354;4.992;2022-08-19T05:00:21;18.80;92.50
68217;DHT22;55037;52.354;4.992;2022-08-19T05:02:48;18.80;92.10
68217;DHT22;55037;52.354;4.992;2022-08-19T05:05:16;18.90;92.10
68217;DHT22;55037;52.354;4.992;2022-08-19T05:07:44;18.90;92.10
68217;DHT22;55037;52.354;4.992;2022-08-19T05:10:11;19.00;92.10
68217;DHT22;55037;52.354;4.992;2022-08-19T05:12:39;19.00;92.20
68217;DHT22;55037;52.354;4.992;2022-08-19T05:15:06;19.10;92.10
68217;DHT22;55037;52.354;4.992;2022-08-19T05:17:35;19.10;92.00
68217;DHT22;55037;52.354;4.992;2022-08-19T05:20:06;19.20;92.00
68217;DHT22;55037;52.354;4.992;2022-08-19T05:22:52;19.20;91.90
68217;DHT22;55037;52.354;4.992;2022-08-19T05:25:21;19.20;91.80
68217;DHT22;55037;52.354;4.992;2022-08-19T05:27:48;19.30;91.80
68217;DHT22;55037;52.354;4.992;2022-08-19T05:30:17;19.40;91.60
68217;DHT22;55037;52.354;4.992;2022-08-19T05:32:50;19.50;91.60
68217;DHT22;55037;52.354;4.992;2022-08-19T05:35:20;19.70;91.40
68217;DHT22;55037;52.354;4.992;2022-08-19T05:37:50;19.80;90.90
68217;DHT22;55037;52.354;4.992;2022-08-19T05:40:25;19.90;90.70
68217;DHT22;55037;52.354;4.992;2022-08-19T05:42:52;19.90;90.20
68217;DHT22;55037;52.354;4.992;2022-08-19T05:45:21;19.90;90.30
68217;DHT22;55037;52.354;4.992;2022-08-19T05:47:48;19.90;90.10
68217;DHT22;55037;52.354;4.992;2022-08-19T05:50:16;19.90;90.20
68217;DHT22;55037;52.354;4.992;2022-08-19T05:52:44;20.00;90.20
68217;DHT22;55037;52.354;4.992;2022-08-19T05:55:17;20.00;90.20
68217;DHT22;55037;52.354;4.992;2022-08-19T05:57:47;20.30;89.00
68217;DHT22;55037;52.354;4.992;2022-08-19T06:00:14;20.30;89.60
68217;DHT22;55037;52.354;4.992;2022-08-19T06:02:41;20.40;88.90
68217;DHT22;55037;52.354;4.992;2022-08-19T06:05:09;20.50;88.00
68217;DHT22;55037;52.354;4.992;2022-08-19T06:07:38;20.50;87.30
68217;DHT22;55037;52.354;4.992;2022-08-19T06:10:09;20.50;87.30
68217;DHT22;55037;52.354;4.992;2022-08-19T06:12:37;20.60;88.10
68217;DHT22;55037;52.354;4.992;2022-08-19T06:15:10;20.60;87.40
68217;DHT22;55037;52.354;4.992;2022-08-19T06:17:37;20.70;87.50
68217;DHT22;55037;52.354;4.992;2022-08-19T06:20:07;20.80;87.00
68217;DHT22;55037;52.354;4.992;2022-08-19T06:22:44;20.80;86.40
68217;DHT22;55037;52.354;4.992;2022-08-19T06:25:13;20.80;86.40
68217;DHT22;55037;52.354;4.992;2022-08-19T06:27:41;21.00;85.00
68217;DHT22;55037;52.354;4.992;2022-08-19T06:30:28;21.00;85.80
68217;DHT22;55037;52.354;4.992;2022-08-19T06:32:56;21.10;85.80
68217;DHT22;55037;52.354;4.992;2022-08-19T06:35:23;21.20;85.10
68217;DHT22;55037;52.354;4.992;2022-08-19T06:37:53;21.20;84.70
68217;DHT22;55037;52.354;4.992;2022-08-19T06:40:20;21.30;84.90
68217;DHT22;55037;52.354;4.992;2022-08-19T06:42:48;21.30;84.50
68217;DHT22;55037;52.354;4.992;2022-08-19T06:45:22;21.40;84.20
68217;DHT22;55037;52.354;4.992;2022-08-19T06:47:52;21.50;84.00
68217;DHT22;55037;52.354;4.992;2022-08-19T06:50:23;21.50;83.10
68217;DHT22;55037;52.354;4.992;2022-08-19T06:52:51;21.60;82.80
68217;DHT22;55037;52.354;4.992;2022-08-19T06:55:19;21.50;82.30
68217;DHT22;55037;52.354;4.992;2022-08-19T06:57:46;21.40;83.00
68217;DHT22;55037;52.354;4.992;2022-08-19T07:00:15;21.60;83.40
68217;DHT22;55037;52.354;4.992;2022-08-19T07:02:44;21.70;82.80
68217;DHT22;55037;52.354;4.992;2022-08-19T07:05:22;21.70;81.80
68217;DHT22;55037;52.354;4.992;2022-08-19T07:07:49;21.90;80.70
68217;DHT22;55037;52.354;4.992;2022-08-19T07:10:17;21.90;81.50
68217;DHT22;55037;52.354;4.992;2022-08-19T07:12:45;22.00;81.10
68217;DHT22;55037;52.354;4.992;2022-08-19T07:15:13;22.10;80.50
68217;DHT22;55037;52.354;4.992;2022-08-19T07:17:41;22.40;79.60
68217;DHT22;55037;52.354;4.992;2022-08-19T07:20:11;22.40;80.40
68217;DHT22;55037;52.354;4.992;2022-08-19T07:22:39;22.50;79.40
68217;DHT22;55037;52.354;4.992;2022-08-19T07:25:08;22.70;78.80
68217;DHT22;55037;52.354;4.992;2022-08-19T07:27:36;22.80;78.90
68217;DHT22;55037;52.354;4.992;2022-08-19T07:30:07;23.10;78.00
68217;DHT22;55037;52.354;4.992;2022-08-19T07:32:39;23.20;76.40
68217;DHT22;55037;52.354;4.992;2022-08-19T07:35:07;23.20;76.20
68217;DHT22;55037;52.354;4.992;2022-08-19T07:37:35;23.10;75.90
68217;DHT22;55037;52.354;4.992;2022-08-19T07:40:06;23.10;77.00
68217;DHT22;55037;52.354;4.992;2022-08-19T07:42:34;23.30;76.50
68217;DHT22;55037;52.354;4.992;2022-08-19T07:45:01;23.50;76.30
68217;DHT22;55037;52.354;4.992;2022-08-19T07:47:28;23.80;75.70
68217;DHT22;55037;52.354;4.992;2022-08-19T07:50:18;23.90;73.50
68217;DHT22;55037;52.354;4.992;2022-08-19T07:52:47;24.00;73.10
68217;DHT22;55037;52.354;4.992;2022-08-19T07:55:20;24.00;73.30
68217;DHT22;55037;52.354;4.992;2022-08-19T07:58:08;24.20;72.40
68217;DHT22;55037;52.354;4.992;2022-08-19T08:00:35;24.20;73.40
68217;DHT22;55037;52.354;4.992;2022-08-19T08:03:03;24.70;72.20
68217;DHT22;55037;52.354;4.992;2022-08-19T08:05:30;25.20;70.20
68217;DHT22;55037;52.354;4.992;2022-08-19T08:08:16;25.40;68.90
68217;DHT22;55037;52.354;4.992;2022-08-19T08:11:04;25.40;67.60
68217;DHT22;55037;52.354;4.992;2022-08-19T08:13:34;25.30;67.70
68217;DHT22;55037;52.354;4.992;2022-08-19T08:16:02;25.10;67.80
68217;DHT22;55037;52.354;4.992;2022-08-19T08:18:30;24.90;69.10
68217;DHT22;55037;52.354;4.992;2022-08-19T08:20:58;25.00;69.50
68217;DHT22;55037;52.354;4.992;2022-08-19T08:23:26;25.20;68.20
68217;DHT22;55037;52.354;4.992;2022-08-19T08:25:55;26.10;68.40
68217;DHT22;55037;52.354;4.992;2022-08-19T08:28:25;24.90;67.80
68217;DHT22;55037;52.354;4.992;2022-08-19T08:30:56;24.90;69.00
68217;DHT22;55037;52.354;4.992;2022-08-19T08:33:26;25.50;68.40
68217;DHT22;55037;52.354;4.992;2022-08-19T08:36:03;25.90;65.80
68217;DHT22;55037;52.354;4.992;2022-08-19T08:38:32;25.90;65.60
68217;DHT22;55037;52.354;4.992;2022-08-19T08:43:55;26.50;64.10
68217;DHT22;55037;52.354;4.992;2022-08-19T08:46:25;26.80;62.40
68217;DHT22;55037;52.354;4.992;2022-08-19T08:49:06;27.10;62.10
68217;DHT22;55037;52.354;4.992;2022-08-19T08:51:52;27.90;60.20
68217;DHT22;55037;52.354;4.992;2022-08-19T08:54:43;28.60;56.20
68217;DHT22;55037;52.354;4.992;2022-08-19T08:59:53;28.90;54.60
68217;DHT22;55037;52.354;4.992;2022-08-19T09:02:21;29.10;53.60
68217;DHT22;55037;52.354;4.992;2022-08-19T09:04:48;28.80;53.00
68217;DHT22;55037;52.354;4.992;2022-08-19T09:07:52;28.70;53.60
68217;DHT22;55037;52.354;4.992;2022-08-19T09:10:31;30.20;50.30
68217;DHT22;55037;52.354;4.992;2022-08-19T09:13:21;30.40;47.30
68217;DHT22;55037;52.354;4.992;2022-08-19T09:15:58;30.30;47.90
68217;DHT22;55037;52.354;4.992;2022-08-19T09:18:46;30.70;48.60
68217;DHT22;55037;52.354;4.992;2022-08-19T09:21:21;31.60;44.30
68217;DHT22;55037;52.354;4.992;2022-08-19T09:23:56;30.80;44.10
68217;DHT22;55037;52.354;4.992;2022-08-19T09:26:26;31.40;44.10
68217;DHT22;55037;52.354;4.992;2022-08-19T09:29:13;31.60;42.10
68217;DHT22;55037;52.354;4.992;2022-08-19T09:31:40;30.70;45.60
68217;DHT22;55037;52.354;4.992;2022-08-19T09:34:08;30.60;46.10
68217;DHT22;55037;52.354;4.992;2022-08-19T09:36:48;30.20;45.70
68217;DHT22;55037;52.354;4.992;2022-08-19T09:39:21;29.60;46.70
68217;DHT22;55037;52.354;4.992;2022-08-19T09:41:49;28.80;48.20
68217;DHT22;55037;52.354;4.992;2022-08-19T09:44:19;28.10;51.30
68217;DHT22;55037;52.354;4.992;2022-08-19T09:46:48;27.70;52.70
68217;DHT22;55037;52.354;4.992;2022-08-19T09:49:16;27.90;53.40
68217;DHT22;55037;52.354;4.992;2022-08-19T09:51:45;28.70;50.30
68217;DHT22;55037;52.354;4.992;2022-08-19T09:54:17;28.60;48.80
68217;DHT22;55037;52.354;4.992;2022-08-19T09:56:52;28.00;50.80
68217;DHT22;55037;52.354;4.992;2022-08-19T09:59:20;27.60;52.60
68217;DHT22;55037;52.354;4.992;2022-08-19T10:01:47;27.70;52.50
68217;DHT22;55037;52.354;4.992;2022-08-19T10:04:15;28.00;51.80
68217;DHT22;55037;52.354;4.992;2022-08-19T10:06:50;28.70;50.70
68217;DHT22;55037;52.354;4.992;2022-08-19T10:09:21;30.50;44.80
68217;DHT22;55037;52.354;4.992;2022-08-19T10:12:01;30.80;41.50
68217;DHT22;55037;52.354;4.992;2022-08-19T10:14:29;29.80;43.20
68217;DHT22;55037;52.354;4.992;2022-08-19T10:16:57;28.90;46.10
68217;DHT22;55037;52.354;4.992;2022-08-19T10:19:25;28.10;49.60
68217;DHT22;55037;52.354;4.992;2022-08-19T10:21:54;27.60;51.40
68217;DHT22;55037;52.354;4.992;2022-08-19T10:24:26;27.40;52.60
68217;DHT22;55037;52.354;4.992;2022-08-19T10:26:55;27.20;53.60
68217;DHT22;55037;52.354;4.992;2022-08-19T10:29:26;27.20;54.40
68217;DHT22;55037;52.354;4.992;2022-08-19T10:32:00;27.30;54.30
68217;DHT22;55037;52.354;4.992;2022-08-19T10:34:29;27.30;53.70
68217;DHT22;55037;52.354;4.992;2022-08-19T10:36:58;27.40;54.60
68217;DHT22;55037;52.354;4.992;2022-08-19T10:39:32;27.50;53.90
68217;DHT22;55037;52.354;4.992;2022-08-19T10:42:10;27.40;53.40
68217;DHT22;55037;52.354;4.992;2022-08-19T10:44:38;27.50;53.60
68217;DHT22;55037;52.354;4.992;2022-08-19T10:47:06;27.80;53.60
68217;DHT22;55037;52.354;4.992;2022-08-19T10:49:51;28.50;51.30
68217;DHT22;55037;52.354;4.992;2022-08-19T10:52:44;29.00;47.80
68217;DHT22;55037;52.354;4.992;2022-08-19T10:55:22;29.10;47.80
68217;DHT22;55037;52.354;4.992;2022-08-19T10:58:17;29.10;47.40
68217;DHT22;55037;52.354;4.992;2022-08-19T11:00:56;29.10;47.90
68217;DHT22;55037;52.354;4.992;2022-08-19T11:03:25;29.20;46.80
68217;DHT22;55037;52.354;4.992;2022-08-19T11:06:03;28.90;46.90
68217;DHT22;55037;52.354;4.992;2022-08-19T11:08:31;28.40;49.00
68217;DHT22;55037;52.354;4.992;2022-08-19T11:11:00;27.80;50.80
68217;DHT22;55037;52.354;4.992;2022-08-19T11:13:30;27.50;52.90
68217;DHT22;55037;52.354;4.992;2022-08-19T11:16:04;27.50;53.20
68217;DHT22;55037;52.354;4.992;2022-08-19T11:18:45;27.60;52.80
68217;DHT22;55037;52.354;4.992;2022-08-19T11:21:16;28.00;51.80
68217;DHT22;55037;52.354;4.992;2022-08-19T11:23:47;28.40;50.80
68217;DHT22;55037;52.354;4.992;2022-08-19T11:26:16;28.80;49.10
68217;DHT22;55037;52.354;4.992;2022-08-19T11:28:44;29.10;48.40
68217;DHT22;55037;52.354;4.992;2022-08-19T11:31:13;29.40;47.80
68217;DHT22;55037;52.354;4.992;2022-08-19T11:33:41;29.80;46.70
68217;DHT22;55037;52.354;4.992;2022-08-19T11:36:13;30.00;44.90
68217;DHT22;55037;52.354;4.992;2022-08-19T11:38:42;30.10;43.80
68217;DHT22;55037;52.354;4.992;2022-08-19T11:41:09;30.00;44.00
68217;DHT22;55037;52.354;4.992;2022-08-19T11:43:37;29.80;44.10
68217;DHT22;55037;52.354;4.992;2022-08-19T11:46:06;29.70;44.20
68217;DHT22;55037;52.354;4.992;2022-08-19T11:48:35;29.50;44.90
68217;DHT22;55037;52.354;4.992;2022-08-19T11:51:08;29.40;45.50
68217;DHT22;55037;52.354;4.992;2022-08-19T11:53:37;29.10;45.90
68217;DHT22;55037;52.354;4.992;2022-08-19T11:56:05;28.60;47.30
68217;DHT22;55037;52.354;4.992;2022-08-19T11:58:33;28.20;48.90
68217;DHT22;55037;52.354;4.992;2022-08-19T12:01:01;28.30;49.50
68217;DHT22;55037;52.354;4.992;2022-08-19T12:03:28;28.40;48.30
68217;DHT22;55037;52.354;4.992;2022-08-19T12:05:56;27.50;47.30
68217;DHT22;55037;52.354;4.992;2022-08-19T12:08:23;28.50;48.10
68217;DHT22;55037;52.354;4.992;2022-08-19T12:10:51;28.50;48.40
68217;DHT22;55037;52.354;4.992;2022-08-19T12:13:18;28.80;49.00
68217;DHT22;55037;52.354;4.992;2022-08-19T12:15:46;28.80;47.90
68217;DHT22;55037;52.354;4.992;2022-08-19T12:18:14;28.90;47.00
68217;DHT22;55037;52.354;4.992;2022-08-19T12:20:42;28.90;47.00
68217;DHT22;55037;52.354;4.992;2022-08-19T12:23:10;28.70;48.00
68217;DHT22;55037;52.354;4.992;2022-08-19T12:25:44;28.60;48.80
68217;DHT22;55037;52.354;4.992;2022-08-19T12:28:23;29.00;47.80
68217;DHT22;55037;52.354;4.992;2022-08-19T12:30:51;29.40;46.50
68217;DHT22;55037;52.354;4.992;2022-08-19T12:33:19;29.60;45.90
68217;DHT22;55037;52.354;4.992;2022-08-19T12:35:51;29.50;46.10
68217;DHT22;55037;52.354;4.992;2022-08-19T12:38:19;29.10;46.20
68217;DHT22;55037;52.354;4.992;2022-08-19T12:40:48;28.80;47.00
68217;DHT22;55037;52.354;4.992;2022-08-19T12:43:15;28.30;47.70
68217;DHT22;55037;52.354;4.992;2022-08-19T12:45:42;28.20;49.40
68217;DHT22;55037;52.354;4.992;2022-08-19T12:48:13;28.20;49.30
68217;DHT22;55037;52.354;4.992;2022-08-19T12:51:06;28.20;49.60
68217;DHT22;55037;52.354;4.992;2022-08-19T12:53:34;28.50;49.40
68217;DHT22;55037;52.354;4.992;2022-08-19T12:56:09;29.00;48.10
68217;DHT22;55037;52.354;4.992;2022-08-19T12:58:39;29.50;46.10
68217;DHT22;55037;52.354;4.992;2022-08-19T13:01:16;29.70;44.80
68217;DHT22;55037;52.354;4.992;2022-08-19T13:03:48;29.80;45.00
68217;DHT22;55037;52.354;4.992;2022-08-19T13:06:17;31.60;41.80
68217;DHT22;55037;52.354;4.992;2022-08-19T13:08:46;31.90;39.80
68217;DHT22;55037;52.354;4.992;2022-08-19T13:11:16;31.90;40.70
68217;DHT22;55037;52.354;4.992;2022-08-19T13:13:48;33.00;38.00
68217;DHT22;55037;52.354;4.992;2022-08-19T13:16:18;34.30;36.60
68217;DHT22;55037;52.354;4.992;2022-08-19T13:18:47;36.80;32.70
68217;DHT22;55037;52.354;4.992;2022-08-19T13:21:15;39.00;28.60
68217;DHT22;55037;52.354;4.992;2022-08-19T13:23:42;41.40;25.30
68217;DHT22;55037;52.354;4.992;2022-08-19T13:26:10;42.20;23.60
68217;DHT22;55037;52.354;4.992;2022-08-19T13:28:39;40.00;24.40
68217;DHT22;55037;52.354;4.992;2022-08-19T13:31:28;37.00;27.80
68217;DHT22;55037;52.354;4.992;2022-08-19T13:34:15;34.40;31.40
68217;DHT22;55037;52.354;4.992;2022-08-19T13:36:43;33.50;34.20
68217;DHT22;55037;52.354;4.992;2022-08-19T13:39:10;33.40;34.80
68217;DHT22;55037;52.354;4.992;2022-08-19T13:41:43;32.90;35.50
68217;DHT22;55037;52.354;4.992;2022-08-19T13:44:16;32.10;36.70
68217;DHT22;55037;52.354;4.992;2022-08-19T13:46:46;31.80;37.30
68217;DHT22;55037;52.354;4.992;2022-08-19T13:49:20;32.70;37.00
68217;DHT22;55037;52.354;4.992;2022-08-19T13:51:47;34.70;34.20
68217;DHT22;55037;52.354;4.992;2022-08-19T13:54:14;36.70;30.00
68217;DHT22;55037;52.354;4.992;2022-08-19T13:56:43;37.10;28.60
68217;DHT22;55037;52.354;4.992;2022-08-19T13:59:11;36.20;29.20
68217;DHT22;55037;52.354;4.992;2022-08-19T14:01:40;34.90;30.60
68217;DHT22;55037;52.354;4.992;2022-08-19T14:04:08;33.80;32.90
68217;DHT22;55037;52.354;4.992;2022-08-19T14:06:35;33.70;34.00
68217;DHT22;55037;52.354;4.992;2022-08-19T14:09:03;33.30;34.00
68217;DHT22;55037;52.354;4.992;2022-08-19T14:11:30;32.50;35.50
68217;DHT22;55037;52.354;4.992;2022-08-19T14:13:57;32.30;36.60
68217;DHT22;55037;52.354;4.992;2022-08-19T14:16:24;32.40;36.30
68217;DHT22;55037;52.354;4.992;2022-08-19T14:18:51;32.50;36.40
68217;DHT22;55037;52.354;4.992;2022-08-19T14:21:22;32.50;35.70
68217;DHT22;55037;52.354;4.992;2022-08-19T14:23:51;32.50;36.00
68217;DHT22;55037;52.354;4.992;2022-08-19T14:26:20;32.60;35.80
68217;DHT22;55037;52.354;4.992;2022-08-19T14:28:48;33.80;33.60
68217;DHT22;55037;52.354;4.992;2022-08-19T14:31:17;33.60;34.10
68217;DHT22;55037;52.354;4.992;2022-08-19T14:33:47;33.90;33.60
68217;DHT22;55037;52.354;4.992;2022-08-19T14:36:14;33.60;33.20
68217;DHT22;55037;52.354;4.992;2022-08-19T14:38:42;32.30;35.00
68217;DHT22;55037;52.354;4.992;2022-08-19T14:41:16;31.40;38.10
68217;DHT22;55037;52.354;4.992;2022-08-19T14:43:45;32.10;38.00
68217;DHT22;55037;52.354;4.992;2022-08-19T14:46:14;33.70;35.00
68217;DHT22;55037;52.354;4.992;2022-08-19T14:48:43;33.90;33.70
68217;DHT22;55037;52.354;4.992;2022-08-19T14:51:10;34.60;33.00
68217;DHT22;55037;52.354;4.992;2022-08-19T14:53:38;34.30;31.80
68217;DHT22;55037;52.354;4.992;2022-08-19T14:56:14;33.90;34.00
68217;DHT22;55037;52.354;4.992;2022-08-19T14:58:42;34.40;32.50
68217;DHT22;55037;52.354;4.992;2022-08-19T15:01:11;33.40;33.90
68217;DHT22;55037;52.354;4.992;2022-08-19T15:03:39;32.80;36.30
68217;DHT22;55037;52.354;4.992;2022-08-19T15:06:09;33.30;35.30
68217;DHT22;55037;52.354;4.992;2022-08-19T15:08:40;33.70;33.90
68217;DHT22;55037;52.354;4.992;2022-08-19T15:11:14;33.90;33.20
68217;DHT22;55037;52.354;4.992;2022-08-19T15:13:43;33.00;34.20
68217;DHT22;55037;52.354;4.992;2022-08-19T15:16:13;32.00;36.30
68217;DHT22;55037;52.354;4.992;2022-08-19T15:18:46;31.20;38.60
68217;DHT22;55037;52.354;4.992;2022-08-19T15:21:14;31.00;39.40
68217;DHT22;55037;52.354;4.992;2022-08-19T15:23:55;30.60;40.10
68217;DHT22;55037;52.354;4.992;2022-08-19T15:26:22;30.30;41.40
68217;DHT22;55037;52.354;4.992;2022-08-19T15:28:51;30.20;41.30
68217;DHT22;55037;52.354;4.992;2022-08-19T15:31:20;30.00;41.90
68217;DHT22;55037;52.354;4.992;2022-08-19T15:33:56;30.30;42.70
68217;DHT22;55037;52.354;4.992;2022-08-19T15:36:25;31.30;40.40
68217;DHT22;55037;52.354;4.992;2022-08-19T15:38:53;32.10;38.20
68217;DHT22;55037;52.354;4.992;2022-08-19T15:41:25;32.10;37.30
68217;DHT22;55037;52.354;4.992;2022-08-19T15:43:58;31.50;38.20
68217;DHT22;55037;52.354;4.992;2022-08-19T15:46:27;31.30;39.60
68217;DHT22;55037;52.354;4.992;2022-08-19T15:48:55;30.80;40.10
68217;DHT22;55037;52.354;4.992;2022-08-19T15:51:31;30.50;41.50
68217;DHT22;55037;52.354;4.992;2022-08-19T15:54:03;30.30;42.90
68217;DHT22;55037;52.354;4.992;2022-08-19T15:56:30;30.10;41.80
68217;DHT22;55037;52.354;4.992;2022-08-19T15:59:25;29.60;43.10
68217;DHT22;55037;52.354;4.992;2022-08-19T16:02:15;29.20;44.50